createdAt,value
2023-05-19T00:02:03.563Z,133050.0
2023-05-19T00:07:03.542Z,133060.0
2023-05-19T00:12:03.545Z,133070.0
2023-05-19T00:17:03.560Z,133080.0
2023-05-19T00:27:03.559Z,133110.0
2023-05-19T00:32:03.597Z,133120.0
2023-05-19T00:37:03.560Z,133140.0
2023-05-19T00:42:03.553Z,133140.0
2023-05-19T00:47:03.638Z,133140.0
2023-05-19T00:52:03.560Z,133130.0
2023-05-19T00:57:03.560Z,133130.0
2023-05-19T01:02:03.573Z,133160.0
2023-05-19T01:07:03.572Z,133150.0
2023-05-19T01:12:03.580Z,133150.0
2023-05-19T01:17:03.575Z,133170.0
2023-05-19T01:22:03.585Z,133190.0
2023-05-19T01:27:03.574Z,133210.0
2023-05-19T01:32:03.629Z,133210.0
2023-05-19T01:37:03.586Z,133200.0
2023-05-19T01:42:03.587Z,133220.0
2023-05-19T01:47:03.592Z,133240.0
2023-05-19T01:52:03.581Z,133230.0
2023-05-19T01:57:03.592Z,133240.0
2023-05-19T02:02:03.587Z,133230.0
2023-05-19T02:07:03.589Z,133250.0
2023-05-19T02:12:03.603Z,133240.0
2023-05-19T02:17:03.589Z,133240.0
2023-05-19T02:22:03.592Z,133240.0
2023-05-19T02:27:03.590Z,133240.0
2023-05-19T02:32:03.617Z,133250.0
2023-05-19T02:37:03.591Z,133250.0
2023-05-19T02:42:03.588Z,133250.0
2023-05-19T02:47:03.589Z,133250.0
2023-05-19T02:52:03.605Z,133270.0
2023-05-19T02:57:03.605Z,133280.0
2023-05-19T03:02:03.688Z,133270.0
2023-05-19T03:07:03.600Z,133290.0
2023-05-19T03:12:03.615Z,133290.0
2023-05-19T03:17:03.649Z,133290.0
2023-05-19T03:22:03.844Z,133310.0
2023-05-19T03:27:03.605Z,133320.0
2023-05-19T03:32:03.630Z,133320.0
2023-05-19T03:37:03.613Z,133320.0
2023-05-19T03:42:03.614Z,133310.0
2023-05-19T03:47:03.617Z,133320.0
2023-05-19T03:52:03.622Z,133330.0
2023-05-19T03:57:03.614Z,133350.0
2023-05-19T04:02:03.658Z,133390.0
2023-05-19T04:07:03.623Z,133410.0
2023-05-19T04:12:03.734Z,133390.0
2023-05-19T04:17:03.644Z,133400.0
2023-05-19T04:22:03.729Z,133370.0
2023-05-19T04:27:03.727Z,133360.0
2023-05-19T04:32:03.730Z,133350.0
2023-05-19T04:37:03.749Z,133330.0
2023-05-19T04:42:03.644Z,133320.0
2023-05-19T04:47:03.718Z,133250.0
2023-05-19T04:52:03.752Z,133240.0
2023-05-19T04:57:03.652Z,133280.0
2023-05-19T05:02:03.732Z,133290.0
2023-05-19T05:07:03.643Z,133270.0
2023-05-19T05:12:03.667Z,133250.0
2023-05-19T05:17:03.636Z,133230.0
2023-05-19T05:22:03.649Z,133190.0
2023-05-19T05:27:03.646Z,133190.0
2023-05-19T05:32:03.682Z,133180.0
2023-05-19T05:37:03.644Z,133170.0
2023-05-19T05:42:03.646Z,133110.0
2023-05-19T05:47:03.654Z,133070.0
2023-05-19T05:52:06.267Z,133050.0
2023-05-19T05:57:03.662Z,133020.0
2023-05-19T06:02:03.718Z,132990.0
2023-05-19T06:07:03.662Z,132920.0
2023-05-19T06:12:03.669Z,132830.0
2023-05-19T06:17:03.690Z,132790.0
2023-05-19T06:22:03.675Z,132750.0
2023-05-19T06:27:03.682Z,132770.0
2023-05-19T06:32:03.710Z,132760.0
2023-05-19T06:37:03.689Z,132730.0
2023-05-19T06:42:03.720Z,132670.0
2023-05-19T06:47:03.741Z,132600.0
2023-05-19T06:52:03.690Z,132460.0
2023-05-19T06:57:03.684Z,132430.0
2023-05-19T07:02:03.792Z,132330.0
2023-05-19T07:07:03.696Z,132280.0
2023-05-19T07:12:03.714Z,132230.0
2023-05-19T07:17:03.711Z,132190.0
2023-05-19T07:22:03.709Z,132080.0
2023-05-19T07:27:03.722Z,132060.0
2023-05-19T07:32:03.769Z,132020.0
2023-05-19T07:37:03.722Z,131950.0
2023-05-19T07:42:03.735Z,131910.0
2023-05-19T07:47:03.729Z,131880.0
2023-05-19T07:52:03.727Z,131830.0
2023-05-19T07:57:03.728Z,131830.0
2023-05-19T08:02:03.766Z,131810.0
2023-05-19T08:07:03.733Z,131720.0
2023-05-19T08:12:03.741Z,131640.0
2023-05-19T08:17:03.739Z,131650.0
2023-05-19T08:22:03.746Z,131570.0
2023-05-19T08:27:03.746Z,131550.0
2023-05-19T08:32:03.759Z,131470.0
2023-05-19T08:37:03.759Z,131380.0
2023-05-19T08:42:03.764Z,131390.0
2023-05-19T08:47:03.846Z,131320.0
2023-05-19T08:52:03.799Z,131340.0
2023-05-19T08:57:03.797Z,131290.0
2023-05-19T09:02:03.791Z,131250.0
2023-05-19T09:07:03.825Z,131150.0
2023-05-19T09:12:04.264Z,131120.0
2023-05-19T09:17:04.141Z,131240.0
2023-05-19T09:22:03.889Z,131240.0
2023-05-19T09:27:03.822Z,131130.0
2023-05-19T09:32:03.871Z,131200.0
2023-05-19T09:37:03.822Z,131200.0
2023-05-19T09:42:03.820Z,131200.0
2023-05-19T09:47:03.827Z,131160.0
2023-05-19T09:52:03.871Z,131120.0
2023-05-19T09:57:03.832Z,131060.0
2023-05-19T10:02:03.801Z,131120.0
2023-05-19T10:07:03.797Z,131200.0
2023-05-19T10:12:03.809Z,131060.0
2023-05-19T10:17:03.832Z,131050.0
2023-05-19T10:22:03.794Z,131030.0
2023-05-19T10:27:03.798Z,130940.0
2023-05-19T10:32:03.838Z,130950.0
2023-05-19T10:37:03.811Z,130890.0
2023-05-19T10:42:03.814Z,130890.0
2023-05-19T10:47:03.905Z,130810.0
2023-05-19T10:52:03.830Z,130760.0
2023-05-19T10:57:03.829Z,130650.0
2023-05-19T11:02:03.851Z,130640.0
2023-05-19T11:07:03.922Z,130600.0
2023-05-19T11:12:03.877Z,130740.0
2023-05-19T11:17:03.992Z,130730.0
2023-05-19T11:22:03.850Z,130690.0
2023-05-19T11:27:03.847Z,130730.0
2023-05-19T11:32:03.872Z,130630.0
2023-05-19T11:37:03.845Z,130640.0
2023-05-19T11:42:03.853Z,130620.0
2023-05-19T11:47:03.846Z,130520.0
2023-05-19T11:52:03.848Z,130480.0
2023-05-19T11:57:03.866Z,130480.0
2023-05-19T12:02:03.870Z,130520.0
2023-05-19T12:07:03.856Z,130510.0
2023-05-19T12:12:03.857Z,130470.0
2023-05-19T12:17:03.876Z,130430.0
2023-05-19T12:22:04.130Z,130410.0
2023-05-19T12:27:03.867Z,130470.0
2023-05-19T12:32:03.910Z,130490.0
2023-05-19T12:37:03.875Z,130550.0
2023-05-19T12:42:03.876Z,130460.0
2023-05-19T12:47:03.872Z,130380.0
2023-05-19T12:52:07.122Z,130560.0
2023-05-19T12:57:03.874Z,130640.0
2023-05-19T13:02:03.924Z,130490.0
2023-05-19T13:07:03.896Z,130400.0
2023-05-19T13:12:03.893Z,130360.0
2023-05-19T13:17:03.974Z,130340.0
2023-05-19T13:22:03.890Z,130270.0
2023-05-19T13:27:03.901Z,130250.0
2023-05-19T13:32:03.904Z,130230.0
2023-05-19T13:37:04.154Z,130360.0
2023-05-19T13:42:03.913Z,130220.0
2023-05-19T13:47:03.974Z,130140.0
2023-05-19T13:52:03.907Z,130100.0
2023-05-19T13:57:03.963Z,130150.0
2023-05-19T14:02:04.133Z,130160.0
2023-05-19T14:07:03.925Z,130160.0
2023-05-19T14:12:03.921Z,130300.0
2023-05-19T14:17:03.917Z,130240.0
2023-05-19T14:27:03.929Z,130110.0
2023-05-19T14:32:04.115Z,130090.0
2023-05-19T14:37:03.931Z,130060.0
2023-05-19T14:42:03.948Z,130050.0
2023-05-19T14:47:04.059Z,130080.0
2023-05-19T14:52:03.932Z,130030.0
2023-05-19T14:57:03.937Z,130080.0
2023-05-19T15:02:03.951Z,130110.0
2023-05-19T15:12:03.954Z,129970.0
2023-05-19T15:17:04.035Z,130110.0
2023-05-19T15:22:03.964Z,130110.0
2023-05-19T15:27:03.975Z,130070.0
2023-05-19T15:32:03.967Z,129960.0
2023-05-19T15:37:03.968Z,129960.0
2023-05-19T15:42:03.978Z,129860.0
2023-05-19T15:47:03.967Z,129940.0
2023-05-19T15:52:03.972Z,129780.0
2023-05-19T15:57:03.971Z,129760.0
2023-05-19T16:02:04.048Z,129760.0
2023-05-19T16:07:03.995Z,129980.0
2023-05-19T16:12:03.987Z,130020.0
2023-05-19T16:17:04.004Z,130070.0
2023-05-19T16:22:03.978Z,130040.0
2023-05-19T16:27:03.978Z,129970.0
2023-05-19T16:32:04.064Z,129970.0
2023-05-19T16:37:04.006Z,129960.0
2023-05-19T16:42:03.988Z,129910.0
2023-05-19T16:47:04.005Z,129840.0
2023-05-19T16:52:04.022Z,129850.0
2023-05-19T16:57:04.003Z,129970.0
2023-05-19T17:02:04.066Z,130010.0
2023-05-19T17:07:04.032Z,129990.0
2023-05-19T17:12:04.016Z,130030.0
2023-05-19T17:17:04.018Z,130140.0
2023-05-19T17:22:04.002Z,130080.0
2023-05-19T17:27:04.012Z,130090.0
2023-05-19T17:32:04.113Z,130110.0
2023-05-19T17:37:04.047Z,130130.0
2023-05-19T17:42:04.010Z,130130.0
2023-05-19T17:47:04.031Z,130110.0
2023-05-19T17:52:04.009Z,130280.0
2023-05-19T17:57:04.049Z,130310.0
2023-05-19T18:02:04.058Z,130300.0
2023-05-19T18:07:04.010Z,130320.0
2023-05-19T18:12:04.013Z,130390.0
2023-05-19T18:17:04.023Z,130400.0
2023-05-19T18:22:04.016Z,130410.0
2023-05-19T18:27:04.016Z,130370.0
2023-05-19T18:32:04.084Z,130370.0
2023-05-19T19:37:04.870Z,131020.0
2023-05-19T19:42:04.037Z,131090.0
2023-05-19T19:47:04.037Z,131140.0
2023-05-19T19:52:04.038Z,131200.0
2023-05-19T19:57:04.039Z,131240.0
2023-05-19T20:02:04.094Z,131290.0
2023-05-19T20:07:04.034Z,131320.0
2023-05-19T20:12:04.054Z,131340.0
2023-05-19T20:17:04.038Z,131360.0
2023-05-19T20:22:04.053Z,131400.0
2023-05-19T20:27:04.041Z,131440.0
2023-05-19T20:32:04.056Z,131450.0
2023-05-19T20:37:04.049Z,131480.0
2023-05-19T20:42:04.078Z,131500.0
2023-05-19T20:47:04.054Z,131500.0
2023-05-19T20:52:04.078Z,131520.0
2023-05-19T20:57:04.075Z,131570.0
2023-05-19T21:02:04.066Z,131590.0
2023-05-19T21:07:04.103Z,131600.0
2023-05-19T21:12:04.054Z,131640.0
2023-05-19T21:17:04.121Z,131630.0
2023-05-19T21:22:04.064Z,131650.0
2023-05-19T21:27:04.065Z,131670.0
2023-05-19T21:32:04.067Z,131690.0
2023-05-19T21:37:04.067Z,131700.0
2023-05-19T21:42:04.078Z,131700.0
2023-05-19T21:47:04.063Z,131710.0
2023-05-19T21:52:04.070Z,131720.0
2023-05-19T21:57:04.083Z,131730.0
2023-05-19T22:02:04.123Z,131740.0
2023-05-19T22:07:04.079Z,131740.0
2023-05-19T22:12:04.068Z,131780.0
2023-05-19T22:17:04.078Z,131780.0
2023-05-19T22:22:13.126Z,131780.0
2023-05-19T22:27:04.075Z,131810.0
2023-05-19T22:32:04.084Z,131810.0
2023-05-19T22:37:04.081Z,131810.0
2023-05-19T22:42:04.082Z,131810.0
2023-05-19T22:47:04.079Z,131810.0
2023-05-19T22:52:04.092Z,131810.0
2023-05-19T22:57:04.084Z,131840.0
2023-05-19T23:02:04.088Z,131850.0
2023-05-19T23:07:04.087Z,131850.0
2023-05-19T23:12:04.100Z,131870.0
2023-05-19T23:17:04.169Z,131870.0
2023-05-19T23:22:04.089Z,131860.0
2023-05-19T23:27:04.129Z,131890.0
2023-05-19T23:32:04.107Z,131890.0
2023-05-19T23:37:04.097Z,131910.0
2023-05-19T23:42:04.106Z,131920.0
2023-05-19T23:47:04.251Z,131910.0
2023-05-19T23:52:04.101Z,131920.0
2023-05-19T23:57:04.117Z,131940.0
